createdAt,value
2017-09-05T00:01:57.042Z,78.00
2017-09-05T00:04:23.189Z,78.00
2017-09-05T00:06:49.471Z,78.00
2017-09-05T00:12:16.290Z,77.90
2017-09-05T00:14:45.807Z,78.10
2017-09-05T00:17:14.883Z,77.90
2017-09-05T00:19:41.161Z,78.00
2017-09-05T00:22:11.633Z,78.10
2017-09-05T00:24:37.855Z,78.40
2017-09-05T00:27:04.125Z,78.30
2017-09-05T00:29:30.316Z,78.10
2017-09-05T00:31:56.488Z,78.10
2017-09-05T00:34:22.755Z,78.50
2017-09-05T00:36:49.027Z,78.30
2017-09-05T00:39:15.211Z,78.50
2017-09-05T00:41:59.500Z,79.30
2017-09-05T00:44:29.144Z,78.60
2017-09-05T00:47:00.852Z,78.50
2017-09-05T00:49:27.164Z,79.10
2017-09-05T00:51:53.333Z,78.90
2017-09-05T00:54:19.551Z,78.80
2017-09-05T00:56:45.641Z,78.80
2017-09-05T00:59:11.674Z,78.80
2017-09-05T01:01:39.585Z,78.70
2017-09-05T01:04:05.836Z,78.70
2017-09-05T01:06:32.393Z,78.60
2017-09-05T01:08:58.872Z,78.50
2017-09-05T01:11:24.955Z,78.50
2017-09-05T01:13:50.990Z,78.90
2017-09-05T01:16:17.062Z,78.80
2017-09-05T01:18:43.109Z,78.70
2017-09-05T01:21:09.162Z,79.00
2017-09-05T01:23:35.226Z,78.90
2017-09-05T01:26:01.310Z,79.20
2017-09-05T01:28:27.374Z,79.50
2017-09-05T01:30:53.407Z,79.20
2017-09-05T01:33:19.464Z,78.90
2017-09-05T01:35:45.518Z,79.10
2017-09-05T01:38:11.548Z,79.20
2017-09-05T01:40:37.558Z,79.60
2017-09-05T01:43:03.602Z,79.40
2017-09-05T01:45:29.665Z,79.50
2017-09-05T01:47:55.678Z,79.50
2017-09-05T01:50:21.722Z,79.70
2017-09-05T01:52:47.738Z,79.90
2017-09-05T01:55:13.786Z,79.90
2017-09-05T01:57:39.820Z,79.80
2017-09-05T02:00:05.837Z,79.80
2017-09-05T02:02:31.910Z,79.80
2017-09-05T02:04:57.939Z,79.80
2017-09-05T02:07:23.980Z,80.00
2017-09-05T02:09:50.370Z,80.00
2017-09-05T02:12:16.409Z,79.50
2017-09-05T02:14:42.473Z,79.20
2017-09-05T02:17:08.652Z,79.50
2017-09-05T02:19:34.693Z,80.20
2017-09-05T02:22:00.738Z,79.60
2017-09-05T02:24:26.804Z,80.40
2017-09-05T02:26:52.902Z,79.80
2017-09-05T02:29:18.920Z,79.90
2017-09-05T02:31:44.975Z,80.00
2017-09-05T02:34:11.002Z,80.00
2017-09-05T02:36:37.030Z,80.00
2017-09-05T02:39:03.090Z,80.30
2017-09-05T02:41:29.119Z,80.30
2017-09-05T02:43:55.153Z,80.80
2017-09-05T02:46:21.182Z,81.10
2017-09-05T02:48:47.198Z,81.10
2017-09-05T02:51:13.278Z,80.70
2017-09-05T02:53:39.355Z,80.40
2017-09-05T02:56:05.370Z,81.00
2017-09-05T02:58:31.406Z,80.90
2017-09-05T03:00:57.454Z,80.60
2017-09-05T03:03:23.487Z,80.80
2017-09-05T03:05:49.547Z,81.00
2017-09-05T03:08:15.598Z,80.80
2017-09-05T03:10:41.610Z,80.80
2017-09-05T03:13:07.835Z,80.90
2017-09-05T03:15:33.851Z,81.00
2017-09-05T03:17:59.877Z,80.80
2017-09-05T03:20:26.022Z,80.80
2017-09-05T03:22:52.043Z,80.40
2017-09-05T03:25:18.083Z,80.30
2017-09-05T03:27:44.134Z,80.60
2017-09-05T03:30:10.171Z,80.80
2017-09-05T03:32:36.233Z,80.70
2017-09-05T03:35:02.253Z,80.10
2017-09-05T03:37:28.274Z,80.20
2017-09-05T03:39:54.301Z,79.90
2017-09-05T03:42:20.383Z,79.70
2017-09-05T03:44:46.406Z,79.80
2017-09-05T03:47:12.454Z,79.60
2017-09-05T03:49:38.490Z,79.80
2017-09-05T03:52:04.541Z,79.80
2017-09-05T03:54:30.600Z,80.30
2017-09-05T03:56:56.627Z,80.10
2017-09-05T03:59:22.697Z,79.80
2017-09-05T04:01:48.750Z,79.70
2017-09-05T04:04:14.802Z,79.90
2017-09-05T04:06:40.837Z,80.00
2017-09-05T04:09:06.965Z,80.30
2017-09-05T04:11:33.011Z,80.40
2017-09-05T04:13:59.072Z,80.30
2017-09-05T04:16:25.147Z,80.20
2017-09-05T04:18:51.190Z,80.10
2017-09-05T04:21:17.244Z,80.30
2017-09-05T04:23:43.290Z,80.10
2017-09-05T04:26:09.314Z,80.20
2017-09-05T04:28:35.362Z,80.00
2017-09-05T04:31:01.410Z,80.10
2017-09-05T04:33:27.439Z,80.00
2017-09-05T04:35:53.462Z,79.80
2017-09-05T04:38:19.502Z,79.90
2017-09-05T04:40:45.517Z,80.10
2017-09-05T04:43:11.613Z,80.30
2017-09-05T04:45:37.658Z,80.30
2017-09-05T04:48:03.799Z,80.10
2017-09-05T04:50:29.894Z,80.20
2017-09-05T04:52:55.913Z,80.20
2017-09-05T04:55:21.948Z,80.30
2017-09-05T04:57:48.470Z,80.40
2017-09-05T05:00:14.700Z,79.90
2017-09-05T05:02:40.747Z,80.20
2017-09-05T05:05:06.788Z,79.90
2017-09-05T05:07:32.822Z,79.70
2017-09-05T05:09:59.200Z,79.60
2017-09-05T05:12:25.639Z,80.00
2017-09-05T05:14:51.661Z,79.70
2017-09-05T05:17:17.701Z,79.90
2017-09-05T05:19:43.902Z,79.60
2017-09-05T05:22:09.942Z,79.60
2017-09-05T05:24:36.004Z,79.80
2017-09-05T05:27:02.061Z,79.90
2017-09-05T05:29:28.100Z,79.70
2017-09-05T05:31:54.157Z,79.50
2017-09-05T05:34:20.227Z,79.50
2017-09-05T05:36:46.856Z,79.10
2017-09-05T05:39:12.895Z,79.10
2017-09-05T05:41:38.919Z,79.00
2017-09-05T05:44:04.986Z,79.10
2017-09-05T05:46:31.001Z,78.70
2017-09-05T05:48:57.593Z,77.90
2017-09-05T05:51:24.218Z,78.60
2017-09-05T05:53:50.266Z,78.90
2017-09-05T05:56:16.277Z,78.60
2017-09-05T05:58:42.339Z,78.60
2017-09-05T06:01:08.386Z,78.20
2017-09-05T06:03:34.436Z,78.30
2017-09-05T06:06:00.498Z,77.60
2017-09-05T06:08:26.558Z,77.60
2017-09-05T06:10:52.569Z,76.90
2017-09-05T06:13:18.924Z,76.60
2017-09-05T06:15:44.953Z,76.50
2017-09-05T06:18:10.981Z,76.70
2017-09-05T06:20:37.388Z,76.40
2017-09-05T06:23:03.425Z,76.50
2017-09-05T06:25:29.524Z,76.50
2017-09-05T06:27:55.582Z,76.30
2017-09-05T06:30:21.610Z,76.30
2017-09-05T06:32:47.662Z,77.30
2017-09-05T06:35:13.759Z,76.70
2017-09-05T06:37:39.791Z,77.00
2017-09-05T06:40:06.533Z,77.10
2017-09-05T06:42:32.744Z,76.70
2017-09-05T06:44:58.989Z,76.60
2017-09-05T06:47:27.656Z,76.10
2017-09-05T06:52:43.500Z,75.70
2017-09-05T06:55:09.706Z,75.30
2017-09-05T06:57:36.119Z,75.10
2017-09-05T07:00:02.331Z,74.20
2017-09-05T07:02:28.589Z,74.40
2017-09-05T07:04:54.979Z,74.90
2017-09-05T07:07:21.300Z,74.60
2017-09-05T07:09:47.908Z,74.00
2017-09-05T07:12:14.213Z,74.50
2017-09-05T07:14:40.472Z,74.60
2017-09-05T07:17:06.783Z,74.00
2017-09-05T07:19:32.993Z,73.90
2017-09-05T07:21:59.775Z,73.70
2017-09-05T07:24:26.639Z,73.20
2017-09-05T07:26:53.130Z,73.40
2017-09-05T07:29:19.419Z,73.10
2017-09-05T07:31:45.560Z,72.90
2017-09-05T07:34:11.690Z,73.00
2017-09-05T07:36:37.819Z,72.70
2017-09-05T07:39:04.097Z,72.60
2017-09-05T07:41:30.963Z,72.60
2017-09-05T07:43:57.856Z,72.80
2017-09-05T07:46:31.707Z,73.10
2017-09-05T07:48:58.374Z,72.10
2017-09-05T07:51:25.004Z,72.10
2017-09-05T07:53:53.103Z,71.90
2017-09-05T07:56:19.494Z,71.90
2017-09-05T07:58:45.547Z,71.70
2017-09-05T08:01:11.574Z,71.90
2017-09-05T08:03:37.688Z,71.80
2017-09-05T08:06:03.768Z,71.80
2017-09-05T08:08:29.853Z,71.90
2017-09-05T08:10:55.870Z,72.20
2017-09-05T08:13:21.962Z,71.60
2017-09-05T08:15:48.566Z,71.80
2017-09-05T08:18:14.602Z,71.90
2017-09-05T08:20:40.862Z,71.10
2017-09-05T08:23:06.890Z,71.70
2017-09-05T08:25:32.926Z,70.70
2017-09-05T08:27:59.074Z,71.20
2017-09-05T08:30:25.120Z,70.50
2017-09-05T08:32:51.173Z,70.60
2017-09-05T08:35:17.206Z,70.80
2017-09-05T08:37:43.522Z,69.70
2017-09-05T08:40:09.552Z,70.00
2017-09-05T08:42:35.614Z,70.20
2017-09-05T08:45:01.923Z,69.30
2017-09-05T08:47:27.939Z,68.80
2017-09-05T08:49:53.990Z,68.20
2017-09-05T08:52:20.088Z,68.60
2017-09-05T08:54:46.157Z,68.60
2017-09-05T08:57:12.182Z,68.50
2017-09-05T08:59:38.289Z,67.80
2017-09-05T09:02:04.320Z,67.20
2017-09-05T09:04:30.371Z,67.30
2017-09-05T09:06:56.423Z,67.10
2017-09-05T09:09:22.438Z,66.30
2017-09-05T09:11:48.446Z,66.50
2017-09-05T09:14:14.522Z,66.80
2017-09-05T09:16:40.547Z,66.50
2017-09-05T09:19:06.604Z,66.40
2017-09-05T09:21:32.667Z,65.60
2017-09-05T09:23:58.714Z,64.80
2017-09-05T09:26:24.739Z,65.10
2017-09-05T09:28:50.886Z,65.60
2017-09-05T09:31:16.933Z,64.90
2017-09-05T09:33:42.971Z,65.30
2017-09-05T09:36:09.076Z,65.60
2017-09-05T09:38:35.196Z,63.60
2017-09-05T09:41:01.220Z,64.20
2017-09-05T09:43:27.500Z,60.80
2017-09-05T09:45:53.522Z,57.70
2017-09-05T09:48:19.561Z,55.90
2017-09-05T09:50:45.643Z,53.70
2017-09-05T09:53:11.665Z,53.30
2017-09-05T09:55:37.714Z,52.80
2017-09-05T09:58:03.974Z,51.80
2017-09-05T10:00:29.988Z,51.30
2017-09-05T10:02:56.047Z,49.40
2017-09-05T10:05:22.080Z,49.50
2017-09-05T10:07:48.142Z,48.60
2017-09-05T10:10:14.190Z,48.20
2017-09-05T10:12:40.225Z,47.80
2017-09-05T10:15:06.294Z,49.30
2017-09-05T10:17:32.434Z,48.00
2017-09-05T10:19:58.479Z,48.10
2017-09-05T10:22:24.698Z,47.80
2017-09-05T10:24:50.717Z,47.60
2017-09-05T10:27:16.777Z,47.60
2017-09-05T10:29:43.174Z,47.10
2017-09-05T10:32:09.219Z,47.80
2017-09-05T10:34:35.258Z,48.50
2017-09-05T10:37:01.307Z,47.80
2017-09-05T10:39:27.339Z,48.70
2017-09-05T10:41:53.422Z,49.20
2017-09-05T10:44:19.616Z,50.10
2017-09-05T10:46:45.657Z,51.90
2017-09-05T10:49:11.679Z,52.50
2017-09-05T10:51:37.698Z,53.10
2017-09-05T10:54:03.714Z,53.70
2017-09-05T10:56:29.776Z,54.10
2017-09-05T10:58:55.871Z,53.30
2017-09-05T11:01:21.930Z,54.50
2017-09-05T11:03:48.022Z,54.40
2017-09-05T11:06:14.103Z,55.40
2017-09-05T11:08:40.331Z,55.60
2017-09-05T11:11:06.418Z,56.00
2017-09-05T11:13:32.535Z,55.20
2017-09-05T11:15:58.566Z,56.50
2017-09-05T11:18:26.077Z,56.10
2017-09-05T11:20:52.313Z,54.70
2017-09-05T11:23:18.376Z,54.90
2017-09-05T11:25:44.442Z,55.50
2017-09-05T11:28:10.474Z,56.50
2017-09-05T11:30:36.550Z,55.70
2017-09-05T11:33:02.902Z,55.00
2017-09-05T11:35:28.924Z,55.00
2017-09-05T11:37:55.009Z,55.00
2017-09-05T11:40:21.096Z,54.80
2017-09-05T11:42:47.119Z,54.00
2017-09-05T11:45:13.164Z,52.00
2017-09-05T11:47:39.327Z,50.60
2017-09-05T11:50:05.361Z,49.50
2017-09-05T11:52:31.458Z,49.50
2017-09-05T11:54:57.518Z,48.00
2017-09-05T11:57:23.587Z,48.80
2017-09-05T11:59:49.651Z,49.90
2017-09-05T12:02:15.796Z,50.00
2017-09-05T12:04:41.846Z,50.00
2017-09-05T12:07:07.883Z,49.90
2017-09-05T12:09:34.063Z,49.40
2017-09-05T12:12:00.177Z,51.50
2017-09-05T12:14:26.177Z,51.30
2017-09-05T12:16:52.199Z,50.90
2017-09-05T12:19:18.234Z,51.50
2017-09-05T12:21:44.287Z,51.90
2017-09-05T12:24:10.375Z,52.30
2017-09-05T12:26:36.750Z,52.90
2017-09-05T12:29:02.797Z,51.90
2017-09-05T12:31:28.897Z,52.60
2017-09-05T12:33:54.982Z,51.30
2017-09-05T12:36:21.047Z,51.60
2017-09-05T12:38:47.098Z,49.60
2017-09-05T12:41:13.154Z,49.70
2017-09-05T12:43:39.214Z,48.80
2017-09-05T12:46:05.254Z,48.50
2017-09-05T12:48:31.314Z,48.30
2017-09-05T12:50:57.334Z,49.30
2017-09-05T12:53:23.644Z,48.80
2017-09-05T12:55:49.688Z,49.00
2017-09-05T12:58:15.721Z,49.70
2017-09-05T13:00:41.810Z,50.30
2017-09-05T13:03:07.846Z,50.20
2017-09-05T13:05:33.917Z,50.30
2017-09-05T13:08:00.011Z,50.60
2017-09-05T13:10:26.082Z,51.90
2017-09-05T13:12:52.106Z,51.30
2017-09-05T13:15:18.177Z,51.20
2017-09-05T13:17:44.234Z,52.30
2017-09-05T13:20:10.291Z,51.90
2017-09-05T13:22:36.358Z,51.20
2017-09-05T13:25:02.397Z,51.20
2017-09-05T13:27:28.546Z,50.20
2017-09-05T13:29:54.891Z,51.40
2017-09-05T13:32:20.922Z,50.90
2017-09-05T13:34:46.965Z,51.40
2017-09-05T13:37:13.174Z,51.80
2017-09-05T13:39:39.186Z,52.10
2017-09-05T13:42:05.257Z,52.90
2017-09-05T13:44:31.943Z,53.10
2017-09-05T13:46:58.034Z,53.70
2017-09-05T13:49:24.285Z,52.60
2017-09-05T13:51:50.363Z,52.20
2017-09-05T13:54:16.430Z,52.90
2017-09-05T13:56:42.476Z,52.70
2017-09-05T13:59:08.681Z,53.30
2017-09-05T14:01:34.947Z,54.80
2017-09-05T14:04:01.193Z,53.70
2017-09-05T14:06:27.256Z,54.90
2017-09-05T14:08:53.354Z,56.40
2017-09-05T14:11:19.414Z,54.70
2017-09-05T14:13:45.616Z,54.00
2017-09-05T14:16:11.643Z,54.80
2017-09-05T14:18:37.723Z,55.40
2017-09-05T14:21:03.933Z,54.60
2017-09-05T14:23:29.958Z,54.40
2017-09-05T14:25:56.049Z,54.80
2017-09-05T14:28:22.495Z,54.80
2017-09-05T14:30:48.529Z,55.30
2017-09-05T14:33:14.602Z,55.10
2017-09-05T14:35:40.615Z,54.70
2017-09-05T14:38:06.751Z,54.50
2017-09-05T14:40:32.863Z,54.90
2017-09-05T14:42:58.927Z,54.50
2017-09-05T14:45:25.043Z,54.40
2017-09-05T14:47:51.456Z,54.70
2017-09-05T14:50:17.552Z,55.50
2017-09-05T14:52:43.603Z,55.80
2017-09-05T14:55:09.939Z,56.40
2017-09-05T14:57:35.972Z,56.20
2017-09-05T15:00:02.066Z,56.10
2017-09-05T15:02:28.302Z,56.20
2017-09-05T15:04:54.326Z,56.60
2017-09-05T15:07:20.383Z,56.90
2017-09-05T15:09:46.466Z,56.20
2017-09-05T15:12:12.530Z,56.20
2017-09-05T15:14:38.562Z,56.20
2017-09-05T15:17:04.663Z,56.50
2017-09-05T15:19:30.690Z,56.80
2017-09-05T15:21:56.764Z,57.30
2017-09-05T15:24:22.825Z,57.70
2017-09-05T15:26:49.138Z,57.60
2017-09-05T15:29:15.182Z,58.10
2017-09-05T15:31:41.202Z,58.10
2017-09-05T15:34:07.615Z,58.60
2017-09-05T15:36:33.631Z,59.00
2017-09-05T15:38:59.662Z,59.10
2017-09-05T15:41:25.751Z,59.50
2017-09-05T15:43:51.790Z,59.60
2017-09-05T15:46:17.839Z,59.70
2017-09-05T15:48:43.894Z,59.80
2017-09-05T15:51:09.946Z,60.10
2017-09-05T15:53:36.018Z,60.30
2017-09-05T15:56:02.075Z,60.40
2017-09-05T15:58:28.160Z,61.00
2017-09-05T16:00:54.347Z,61.10
2017-09-05T16:03:20.389Z,61.20
2017-09-05T16:05:46.428Z,61.70
2017-09-05T16:08:12.463Z,61.40
2017-09-05T16:10:38.490Z,60.80
2017-09-05T16:13:04.511Z,60.90
2017-09-05T16:15:31.103Z,60.70
2017-09-05T16:17:57.185Z,61.20
2017-09-05T16:20:23.255Z,61.30
2017-09-05T16:22:49.352Z,62.00
2017-09-05T16:25:15.382Z,62.30
2017-09-05T16:27:41.423Z,62.70
2017-09-05T16:30:07.478Z,63.70
2017-09-05T16:32:33.524Z,64.10
2017-09-05T16:34:59.903Z,64.70
2017-09-05T16:37:25.914Z,64.60
2017-09-05T16:39:51.991Z,65.10
2017-09-05T16:42:18.081Z,66.60
2017-09-05T16:44:44.105Z,65.90
2017-09-05T16:47:10.143Z,66.30
2017-09-05T16:49:36.205Z,66.70
2017-09-05T16:52:02.246Z,67.10
2017-09-05T16:54:28.270Z,67.30
2017-09-05T16:56:54.675Z,67.70
2017-09-05T16:59:20.691Z,68.00
2017-09-05T17:01:46.751Z,68.70
2017-09-05T17:04:12.952Z,68.80
2017-09-05T17:06:39.100Z,68.80
2017-09-05T17:09:05.114Z,69.30
2017-09-05T17:11:31.186Z,69.50
2017-09-05T17:13:57.206Z,69.60
2017-09-05T17:16:23.538Z,70.50
2017-09-05T17:18:49.790Z,70.80
2017-09-05T17:21:15.827Z,71.30
2017-09-05T17:23:41.866Z,71.50
2017-09-05T17:26:07.914Z,71.80
2017-09-05T17:28:34.215Z,71.60
2017-09-05T17:31:00.287Z,71.50
2017-09-05T17:33:26.340Z,71.50
2017-09-05T17:35:52.432Z,71.60
2017-09-05T17:38:18.455Z,71.80
2017-09-05T17:40:44.480Z,71.40
2017-09-05T17:43:10.559Z,72.90
2017-09-05T17:45:36.587Z,73.40
2017-09-05T17:48:02.611Z,73.80
2017-09-05T17:50:28.683Z,73.10
2017-09-05T17:52:54.916Z,72.50
2017-09-05T17:55:20.981Z,73.00
2017-09-05T17:57:47.258Z,72.80
2017-09-05T18:00:13.332Z,72.80
2017-09-05T18:02:39.359Z,73.70
2017-09-05T18:05:05.433Z,74.20
2017-09-05T18:07:31.502Z,74.90
2017-09-05T18:09:57.558Z,73.80
2017-09-05T18:12:23.903Z,73.80
2017-09-05T18:14:49.929Z,73.70
2017-09-05T18:17:16.110Z,72.90
2017-09-05T18:19:42.186Z,72.70
2017-09-05T18:22:08.237Z,73.80
2017-09-05T18:24:34.275Z,74.50
2017-09-05T18:27:00.322Z,75.20
2017-09-05T18:29:26.344Z,75.60
2017-09-05T18:31:52.518Z,75.90
2017-09-05T18:34:18.570Z,75.80
2017-09-05T18:36:44.620Z,75.80
2017-09-05T18:39:10.898Z,76.80
2017-09-05T18:41:36.938Z,75.70
2017-09-05T18:44:02.975Z,76.00
2017-09-05T18:46:29.321Z,76.20
2017-09-05T18:48:55.362Z,76.40
2017-09-05T18:51:21.424Z,76.30
2017-09-05T18:53:47.475Z,76.00
2017-09-05T18:56:13.531Z,75.70
2017-09-05T18:58:39.586Z,76.30
2017-09-05T19:01:05.657Z,76.00
2017-09-05T19:03:31.702Z,76.00
2017-09-05T19:05:57.757Z,76.20
2017-09-05T19:08:23.808Z,75.80
2017-09-05T19:10:49.844Z,76.70
2017-09-05T19:13:15.895Z,76.50
2017-09-05T19:15:41.914Z,75.10
2017-09-05T19:18:07.966Z,76.50
2017-09-05T19:20:34.352Z,75.50
2017-09-05T19:23:00.462Z,74.20
2017-09-05T19:25:26.506Z,73.80
2017-09-05T19:27:52.563Z,74.40
2017-09-05T19:30:18.613Z,74.30
2017-09-05T19:32:44.654Z,74.20
2017-09-05T19:35:10.753Z,74.20
2017-09-05T19:37:36.971Z,74.20
2017-09-05T19:40:03.026Z,74.20
2017-09-05T19:42:29.089Z,74.20
2017-09-05T19:44:55.292Z,74.10
2017-09-05T19:47:21.319Z,74.20
2017-09-05T19:49:47.735Z,74.30
2017-09-05T19:52:13.783Z,74.30
2017-09-05T19:54:39.823Z,74.40
2017-09-05T19:57:06.227Z,74.40
2017-09-05T19:59:32.299Z,74.60
2017-09-05T20:01:58.358Z,74.60
2017-09-05T20:04:24.409Z,75.20
2017-09-05T20:06:50.464Z,75.00
2017-09-05T20:09:17.994Z,74.90
2017-09-05T20:11:44.234Z,74.80
2017-09-05T20:14:10.283Z,74.90
2017-09-05T20:16:36.389Z,75.00
2017-09-05T20:19:03.147Z,74.80
2017-09-05T20:21:29.225Z,74.90
2017-09-05T20:23:55.354Z,75.00
2017-09-05T20:26:21.386Z,75.60
2017-09-05T20:28:47.468Z,75.30
2017-09-05T20:31:13.576Z,75.40
2017-09-05T20:33:39.683Z,75.50
2017-09-05T20:36:05.715Z,75.70
2017-09-05T20:38:31.775Z,75.80
2017-09-05T20:40:57.823Z,75.80
2017-09-05T20:43:23.858Z,76.10
2017-09-05T20:45:49.950Z,76.50
2017-09-05T20:48:15.994Z,76.70
2017-09-05T20:50:42.039Z,77.00
2017-09-05T20:53:08.172Z,77.30
2017-09-05T20:55:34.210Z,77.20
2017-09-05T20:58:00.286Z,77.70
2017-09-05T21:00:26.332Z,77.60
2017-09-05T21:02:52.474Z,77.90
2017-09-05T21:05:18.787Z,78.00
2017-09-05T21:07:44.850Z,78.30
2017-09-05T21:10:10.906Z,78.70
2017-09-05T21:12:36.978Z,78.60
2017-09-05T21:15:03.026Z,79.10
2017-09-05T21:17:29.091Z,79.20
2017-09-05T21:19:55.159Z,79.20
2017-09-05T21:22:21.283Z,78.80
2017-09-05T21:24:47.361Z,78.90
2017-09-05T21:27:13.444Z,79.00
2017-09-05T21:29:39.476Z,79.10
2017-09-05T21:32:05.506Z,79.50
2017-09-05T21:34:31.744Z,79.80
2017-09-05T21:36:57.802Z,79.40
2017-09-05T21:39:23.866Z,79.30
2017-09-05T21:41:49.912Z,79.60
2017-09-05T21:44:15.956Z,79.70
2017-09-05T21:46:42.026Z,80.40
2017-09-05T21:49:08.235Z,80.00
2017-09-05T21:51:34.305Z,80.00
2017-09-05T21:54:00.317Z,80.10
2017-09-05T21:56:26.359Z,80.30
2017-09-05T21:58:52.685Z,80.70
2017-09-05T22:01:18.734Z,80.80
2017-09-05T22:03:44.805Z,80.80
2017-09-05T22:06:10.851Z,80.70
2017-09-05T22:08:36.895Z,80.70
2017-09-05T22:11:02.966Z,80.90
2017-09-05T22:13:28.997Z,80.70
2017-09-05T22:15:55.343Z,80.70
2017-09-05T22:18:27.510Z,80.40
2017-09-05T22:20:59.798Z,80.60
2017-09-05T22:23:25.814Z,80.60
2017-09-05T22:25:57.838Z,80.60
2017-09-05T22:28:30.006Z,80.60
2017-09-05T22:30:56.044Z,80.80
2017-09-05T22:33:22.134Z,80.80
2017-09-05T22:35:48.183Z,80.80
2017-09-05T22:38:14.226Z,80.80
2017-09-05T22:40:40.573Z,80.70
2017-09-05T22:43:06.618Z,80.80
2017-09-05T22:45:32.641Z,80.30
2017-09-05T22:47:58.703Z,80.90
2017-09-05T22:50:24.760Z,81.00
2017-09-05T22:52:50.806Z,81.00
2017-09-05T22:55:17.103Z,80.90
2017-09-05T22:57:43.137Z,81.60
2017-09-05T23:00:09.210Z,80.90
2017-09-05T23:02:35.274Z,80.80
2017-09-05T23:05:01.306Z,81.00
2017-09-05T23:07:27.373Z,81.40
2017-09-05T23:09:53.618Z,81.50
2017-09-05T23:12:19.639Z,81.70
2017-09-05T23:14:45.666Z,82.10
2017-09-05T23:17:13.114Z,82.60
2017-09-05T23:19:39.151Z,84.00
2017-09-05T23:22:05.178Z,85.70
2017-09-05T23:24:31.202Z,87.40
2017-09-05T23:26:57.254Z,88.50
2017-09-05T23:29:23.283Z,89.20
2017-09-05T23:31:49.347Z,89.80
2017-09-05T23:34:15.426Z,90.10
2017-09-05T23:36:41.444Z,90.20
2017-09-05T23:39:07.472Z,90.70
2017-09-05T23:41:33.597Z,90.80
2017-09-05T23:43:59.622Z,91.20
2017-09-05T23:46:25.646Z,91.60
2017-09-05T23:48:51.680Z,91.20
2017-09-05T23:51:17.718Z,91.40
2017-09-05T23:53:43.758Z,91.40
2017-09-05T23:56:09.802Z,91.70
2017-09-05T23:58:35.831Z,91.90
